sensor_id;sensor_type;location;lat;lon;timestamp;P1;durP1;ratioP1;P2;durP2;ratioP2
1346;SDS011;667;48.796;9.480;2023-07-30T00:00:40;2.33;;;1.10;;
1346;SDS011;667;48.796;9.480;2023-07-30T00:03:06;3.27;;;1.40;;
1346;SDS011;667;48.796;9.480;2023-07-30T00:05:32;3.80;;;1.80;;
1346;SDS011;667;48.796;9.480;2023-07-30T00:07:57;3.77;;;1.30;;
1346;SDS011;667;48.796;9.480;2023-07-30T00:10:23;1.50;;;1.10;;
1346;SDS011;667;48.796;9.480;2023-07-30T00:12:49;3.03;;;1.43;;
1346;SDS011;667;48.796;9.480;2023-07-30T00:15:14;1.50;;;1.30;;
1346;SDS011;667;48.796;9.480;2023-07-30T00:17:40;1.97;;;1.60;;
1346;SDS011;667;48.796;9.480;2023-07-30T00:20:08;2.50;;;1.20;;
1346;SDS011;667;48.796;9.480;2023-07-30T00:22:34;1.20;;;1.10;;
1346;SDS011;667;48.796;9.480;2023-07-30T00:24:59;1.27;;;1.10;;
1346;SDS011;667;48.796;9.480;2023-07-30T00:27:25;3.43;;;1.47;;
1346;SDS011;667;48.796;9.480;2023-07-30T00:29:51;2.60;;;1.20;;
1346;SDS011;667;48.796;9.480;2023-07-30T00:32:16;1.60;;;1.00;;
1346;SDS011;667;48.796;9.480;2023-07-30T00:34:42;1.50;;;1.40;;
1346;SDS011;667;48.796;9.480;2023-07-30T00:37:08;2.23;;;1.00;;
1346;SDS011;667;48.796;9.480;2023-07-30T00:39:34;2.83;;;1.73;;
1346;SDS011;667;48.796;9.480;2023-07-30T00:41:59;1.23;;;1.10;;
1346;SDS011;667;48.796;9.480;2023-07-30T00:44:25;1.33;;;0.70;;
1346;SDS011;667;48.796;9.480;2023-07-30T00:46:50;1.93;;;0.97;;
1346;SDS011;667;48.796;9.480;2023-07-30T00:49:16;2.13;;;1.27;;
1346;SDS011;667;48.796;9.480;2023-07-30T00:51:42;2.10;;;1.00;;
1346;SDS011;667;48.796;9.480;2023-07-30T00:54:08;2.33;;;0.93;;
1346;SDS011;667;48.796;9.480;2023-07-30T00:56:35;2.70;;;1.30;;
1346;SDS011;667;48.796;9.480;2023-07-30T00:59:01;2.13;;;1.27;;
1346;SDS011;667;48.796;9.480;2023-07-30T01:01:26;2.70;;;1.60;;
1346;SDS011;667;48.796;9.480;2023-07-30T01:03:53;3.07;;;1.27;;
1346;SDS011;667;48.796;9.480;2023-07-30T01:06:19;2.97;;;1.20;;
1346;SDS011;667;48.796;9.480;2023-07-30T01:08:45;4.60;;;1.20;;
1346;SDS011;667;48.796;9.480;2023-07-30T01:11:11;1.20;;;1.10;;
1346;SDS011;667;48.796;9.480;2023-07-30T01:13:39;4.63;;;1.20;;
1346;SDS011;667;48.796;9.480;2023-07-30T01:16:06;2.03;;;1.30;;
1346;SDS011;667;48.796;9.480;2023-07-30T01:18:31;3.63;;;1.20;;
1346;SDS011;667;48.796;9.480;2023-07-30T01:20:57;1.17;;;1.07;;
1346;SDS011;667;48.796;9.480;2023-07-30T01:23:24;1.60;;;1.40;;
1346;SDS011;667;48.796;9.480;2023-07-30T01:25:51;1.40;;;1.10;;
1346;SDS011;667;48.796;9.480;2023-07-30T01:28:27;1.40;;;1.00;;
1346;SDS011;667;48.796;9.480;2023-07-30T01:30:58;2.33;;;1.00;;
1346;SDS011;667;48.796;9.480;2023-07-30T01:33:25;2.37;;;1.70;;
1346;SDS011;667;48.796;9.480;2023-07-30T01:35:52;2.20;;;1.40;;
1346;SDS011;667;48.796;9.480;2023-07-30T01:38:18;1.17;;;1.07;;
1346;SDS011;667;48.796;9.480;2023-07-30T01:40:44;1.47;;;1.10;;
1346;SDS011;667;48.796;9.480;2023-07-30T01:43:10;1.63;;;1.17;;
1346;SDS011;667;48.796;9.480;2023-07-30T01:45:36;3.07;;;1.20;;
1346;SDS011;667;48.796;9.480;2023-07-30T01:48:01;3.43;;;1.20;;
1346;SDS011;667;48.796;9.480;2023-07-30T01:50:27;5.53;;;1.60;;
1346;SDS011;667;48.796;9.480;2023-07-30T01:52:53;1.93;;;1.30;;
1346;SDS011;667;48.796;9.480;2023-07-30T01:55:18;1.20;;;1.10;;
1346;SDS011;667;48.796;9.480;2023-07-30T01:57:44;3.90;;;1.30;;
1346;SDS011;667;48.796;9.480;2023-07-30T02:00:09;2.50;;;1.00;;
1346;SDS011;667;48.796;9.480;2023-07-30T02:02:35;1.77;;;1.27;;
1346;SDS011;667;48.796;9.480;2023-07-30T02:05:01;1.63;;;1.23;;
1346;SDS011;667;48.796;9.480;2023-07-30T02:07:27;3.00;;;1.30;;
1346;SDS011;667;48.796;9.480;2023-07-30T02:09:52;2.80;;;1.47;;
1346;SDS011;667;48.796;9.480;2023-07-30T02:12:18;1.47;;;1.20;;
1346;SDS011;667;48.796;9.480;2023-07-30T02:14:43;2.03;;;1.10;;
1346;SDS011;667;48.796;9.480;2023-07-30T02:17:09;1.53;;;1.27;;
1346;SDS011;667;48.796;9.480;2023-07-30T02:19:35;1.40;;;1.30;;
1346;SDS011;667;48.796;9.480;2023-07-30T02:22:00;1.53;;;1.40;;
1346;SDS011;667;48.796;9.480;2023-07-30T02:24:26;3.07;;;2.00;;
1346;SDS011;667;48.796;9.480;2023-07-30T02:26:51;1.43;;;1.33;;
1346;SDS011;667;48.796;9.480;2023-07-30T02:29:17;2.90;;;1.63;;
1346;SDS011;667;48.796;9.480;2023-07-30T02:31:42;1.77;;;1.50;;
1346;SDS011;667;48.796;9.480;2023-07-30T02:34:08;2.93;;;1.87;;
1346;SDS011;667;48.796;9.480;2023-07-30T02:36:33;1.40;;;1.30;;
1346;SDS011;667;48.796;9.480;2023-07-30T02:38:59;2.70;;;1.50;;
1346;SDS011;667;48.796;9.480;2023-07-30T02:41:24;1.57;;;1.10;;
1346;SDS011;667;48.796;9.480;2023-07-30T02:43:50;4.63;;;2.07;;
1346;SDS011;667;48.796;9.480;2023-07-30T02:46:16;1.40;;;1.30;;
1346;SDS011;667;48.796;9.480;2023-07-30T02:48:41;1.10;;;1.00;;
1346;SDS011;667;48.796;9.480;2023-07-30T02:51:07;1.87;;;1.50;;
1346;SDS011;667;48.796;9.480;2023-07-30T02:53:32;2.07;;;1.40;;
1346;SDS011;667;48.796;9.480;2023-07-30T02:55:58;5.00;;;1.43;;
1346;SDS011;667;48.796;9.480;2023-07-30T02:58:23;2.77;;;1.50;;
1346;SDS011;667;48.796;9.480;2023-07-30T03:00:49;2.60;;;1.70;;
1346;SDS011;667;48.796;9.480;2023-07-30T03:03:16;2.13;;;1.20;;
1346;SDS011;667;48.796;9.480;2023-07-30T03:05:42;1.67;;;1.40;;
1346;SDS011;667;48.796;9.480;2023-07-30T03:08:08;2.07;;;1.60;;
1346;SDS011;667;48.796;9.480;2023-07-30T03:10:33;1.33;;;1.23;;
1346;SDS011;667;48.796;9.480;2023-07-30T03:13:01;1.77;;;1.57;;
1346;SDS011;667;48.796;9.480;2023-07-30T03:15:26;1.57;;;1.47;;
1346;SDS011;667;48.796;9.480;2023-07-30T03:17:52;1.63;;;1.53;;
1346;SDS011;667;48.796;9.480;2023-07-30T03:20:18;1.73;;;1.57;;
1346;SDS011;667;48.796;9.480;2023-07-30T03:22:43;1.77;;;1.67;;
1346;SDS011;667;48.796;9.480;2023-07-30T03:25:09;6.27;;;2.13;;
1346;SDS011;667;48.796;9.480;2023-07-30T03:27:34;2.33;;;1.57;;
1346;SDS011;667;48.796;9.480;2023-07-30T03:30:00;1.77;;;1.67;;
1346;SDS011;667;48.796;9.480;2023-07-30T03:32:25;1.30;;;1.20;;
1346;SDS011;667;48.796;9.480;2023-07-30T03:34:51;1.53;;;1.17;;
1346;SDS011;667;48.796;9.480;2023-07-30T03:37:16;2.20;;;1.70;;
1346;SDS011;667;48.796;9.480;2023-07-30T03:39:42;2.50;;;1.40;;
1346;SDS011;667;48.796;9.480;2023-07-30T03:42:07;1.70;;;1.60;;
1346;SDS011;667;48.796;9.480;2023-07-30T03:44:33;1.60;;;1.50;;
1346;SDS011;667;48.796;9.480;2023-07-30T03:46:59;1.53;;;1.37;;
1346;SDS011;667;48.796;9.480;2023-07-30T03:49:24;1.80;;;1.70;;
1346;SDS011;667;48.796;9.480;2023-07-30T03:51:50;1.80;;;1.50;;
1346;SDS011;667;48.796;9.480;2023-07-30T03:54:15;2.10;;;2.00;;
1346;SDS011;667;48.796;9.480;2023-07-30T03:56:41;1.87;;;1.63;;
1346;SDS011;667;48.796;9.480;2023-07-30T03:59:06;2.00;;;1.90;;
1346;SDS011;667;48.796;9.480;2023-07-30T04:01:32;2.67;;;1.63;;
1346;SDS011;667;48.796;9.480;2023-07-30T04:03:58;2.30;;;1.57;;
1346;SDS011;667;48.796;9.480;2023-07-30T04:06:24;3.90;;;2.23;;
1346;SDS011;667;48.796;9.480;2023-07-30T04:08:49;3.50;;;2.23;;
1346;SDS011;667;48.796;9.480;2023-07-30T04:11:15;3.20;;;1.70;;
1346;SDS011;667;48.796;9.480;2023-07-30T04:13:41;2.23;;;1.83;;
1346;SDS011;667;48.796;9.480;2023-07-30T04:16:07;1.80;;;1.70;;
1346;SDS011;667;48.796;9.480;2023-07-30T04:18:32;2.43;;;1.73;;
1346;SDS011;667;48.796;9.480;2023-07-30T04:20:58;4.23;;;1.30;;
1346;SDS011;667;48.796;9.480;2023-07-30T04:23:24;3.40;;;2.00;;
1346;SDS011;667;48.796;9.480;2023-07-30T04:25:49;2.47;;;1.60;;
1346;SDS011;667;48.796;9.480;2023-07-30T04:28:15;3.60;;;1.70;;
1346;SDS011;667;48.796;9.480;2023-07-30T04:30:41;2.03;;;1.53;;
1346;SDS011;667;48.796;9.480;2023-07-30T04:33:06;2.30;;;2.10;;
1346;SDS011;667;48.796;9.480;2023-07-30T04:35:32;2.00;;;1.80;;
1346;SDS011;667;48.796;9.480;2023-07-30T04:37:57;3.77;;;2.00;;
1346;SDS011;667;48.796;9.480;2023-07-30T04:40:23;1.83;;;1.60;;
1346;SDS011;667;48.796;9.480;2023-07-30T04:42:49;2.10;;;1.90;;
1346;SDS011;667;48.796;9.480;2023-07-30T04:45:14;4.60;;;2.10;;
1346;SDS011;667;48.796;9.480;2023-07-30T04:47:40;3.00;;;2.30;;
1346;SDS011;667;48.796;9.480;2023-07-30T04:50:05;2.57;;;2.37;;
1346;SDS011;667;48.796;9.480;2023-07-30T04:52:31;5.63;;;2.57;;
1346;SDS011;667;48.796;9.480;2023-07-30T04:54:57;2.67;;;2.33;;
1346;SDS011;667;48.796;9.480;2023-07-30T04:57:22;2.53;;;2.33;;
1346;SDS011;667;48.796;9.480;2023-07-30T04:59:48;2.27;;;2.00;;
1346;SDS011;667;48.796;9.480;2023-07-30T05:02:13;2.70;;;2.30;;
1346;SDS011;667;48.796;9.480;2023-07-30T05:04:39;2.50;;;2.30;;
1346;SDS011;667;48.796;9.480;2023-07-30T05:07:05;2.43;;;2.23;;
1346;SDS011;667;48.796;9.480;2023-07-30T05:09:30;3.10;;;2.77;;
1346;SDS011;667;48.796;9.480;2023-07-30T05:11:56;3.00;;;2.40;;
1346;SDS011;667;48.796;9.480;2023-07-30T05:14:21;2.73;;;2.53;;
1346;SDS011;667;48.796;9.480;2023-07-30T05:16:47;3.23;;;2.93;;
1346;SDS011;667;48.796;9.480;2023-07-30T05:19:12;2.90;;;2.67;;
1346;SDS011;667;48.796;9.480;2023-07-30T05:21:38;4.00;;;3.20;;
1346;SDS011;667;48.796;9.480;2023-07-30T05:24:04;3.00;;;2.70;;
1346;SDS011;667;48.796;9.480;2023-07-30T05:26:29;2.90;;;2.50;;
1346;SDS011;667;48.796;9.480;2023-07-30T05:28:55;3.40;;;3.10;;
1346;SDS011;667;48.796;9.480;2023-07-30T05:31:20;3.23;;;2.80;;
1346;SDS011;667;48.796;9.480;2023-07-30T05:33:46;3.77;;;3.27;;
1346;SDS011;667;48.796;9.480;2023-07-30T05:36:12;2.90;;;2.43;;
1346;SDS011;667;48.796;9.480;2023-07-30T05:38:37;3.30;;;2.67;;
1346;SDS011;667;48.796;9.480;2023-07-30T05:41:03;3.40;;;3.10;;
1346;SDS011;667;48.796;9.480;2023-07-30T05:43:28;3.07;;;2.87;;
1346;SDS011;667;48.796;9.480;2023-07-30T05:45:54;2.70;;;2.43;;
1346;SDS011;667;48.796;9.480;2023-07-30T05:48:19;3.20;;;3.00;;
1346;SDS011;667;48.796;9.480;2023-07-30T05:50:45;3.17;;;2.93;;
1346;SDS011;667;48.796;9.480;2023-07-30T05:53:10;2.87;;;2.60;;
1346;SDS011;667;48.796;9.480;2023-07-30T05:55:36;3.47;;;2.80;;
1346;SDS011;667;48.796;9.480;2023-07-30T05:58:02;3.90;;;3.53;;
1346;SDS011;667;48.796;9.480;2023-07-30T06:00:27;3.40;;;3.03;;
1346;SDS011;667;48.796;9.480;2023-07-30T06:02:53;3.40;;;3.10;;
1346;SDS011;667;48.796;9.480;2023-07-30T06:05:18;3.50;;;3.20;;
1346;SDS011;667;48.796;9.480;2023-07-30T06:07:44;4.23;;;3.10;;
1346;SDS011;667;48.796;9.480;2023-07-30T06:10:10;3.33;;;3.03;;
1346;SDS011;667;48.796;9.480;2023-07-30T06:12:35;4.10;;;3.40;;
1346;SDS011;667;48.796;9.480;2023-07-30T06:15:01;3.83;;;3.20;;
1346;SDS011;667;48.796;9.480;2023-07-30T06:17:27;2.90;;;2.70;;
1346;SDS011;667;48.796;9.480;2023-07-30T06:19:52;3.73;;;3.33;;
1346;SDS011;667;48.796;9.480;2023-07-30T06:22:18;5.13;;;3.47;;
1346;SDS011;667;48.796;9.480;2023-07-30T06:24:43;3.73;;;3.50;;
1346;SDS011;667;48.796;9.480;2023-07-30T06:27:09;3.63;;;3.33;;
1346;SDS011;667;48.796;9.480;2023-07-30T06:29:35;4.00;;;3.67;;
1346;SDS011;667;48.796;9.480;2023-07-30T06:32:01;3.60;;;3.30;;
1346;SDS011;667;48.796;9.480;2023-07-30T06:34:27;4.87;;;3.40;;
1346;SDS011;667;48.796;9.480;2023-07-30T06:36:52;4.53;;;4.13;;
1346;SDS011;667;48.796;9.480;2023-07-30T06:39:18;4.43;;;3.90;;
1346;SDS011;667;48.796;9.480;2023-07-30T06:41:43;4.33;;;3.80;;
1346;SDS011;667;48.796;9.480;2023-07-30T06:44:09;4.40;;;3.97;;
1346;SDS011;667;48.796;9.480;2023-07-30T06:46:35;5.60;;;3.43;;
1346;SDS011;667;48.796;9.480;2023-07-30T06:49:00;6.10;;;4.50;;
1346;SDS011;667;48.796;9.480;2023-07-30T06:51:26;5.07;;;3.40;;
1346;SDS011;667;48.796;9.480;2023-07-30T06:53:52;4.30;;;3.90;;
1346;SDS011;667;48.796;9.480;2023-07-30T06:56:17;6.50;;;3.80;;
1346;SDS011;667;48.796;9.480;2023-07-30T06:58:43;4.83;;;4.43;;
1346;SDS011;667;48.796;9.480;2023-07-30T07:01:09;4.20;;;3.90;;
1346;SDS011;667;48.796;9.480;2023-07-30T07:03:34;4.67;;;4.23;;
1346;SDS011;667;48.796;9.480;2023-07-30T07:06:00;4.40;;;4.00;;
1346;SDS011;667;48.796;9.480;2023-07-30T07:08:26;5.23;;;3.90;;
1346;SDS011;667;48.796;9.480;2023-07-30T07:10:52;5.23;;;4.00;;
1346;SDS011;667;48.796;9.480;2023-07-30T07:13:18;5.40;;;4.10;;
1346;SDS011;667;48.796;9.480;2023-07-30T07:15:43;5.17;;;4.67;;
1346;SDS011;667;48.796;9.480;2023-07-30T07:18:09;3.67;;;3.37;;
1346;SDS011;667;48.796;9.480;2023-07-30T07:20:36;6.00;;;4.10;;
1346;SDS011;667;48.796;9.480;2023-07-30T07:23:02;4.43;;;4.13;;
1346;SDS011;667;48.796;9.480;2023-07-30T07:25:28;4.43;;;3.67;;
1346;SDS011;667;48.796;9.480;2023-07-30T07:27:53;4.23;;;3.93;;
1346;SDS011;667;48.796;9.480;2023-07-30T07:30:19;3.90;;;3.60;;
1346;SDS011;667;48.796;9.480;2023-07-30T07:32:45;3.67;;;3.37;;
1346;SDS011;667;48.796;9.480;2023-07-30T07:35:15;3.30;;;3.00;;
1346;SDS011;667;48.796;9.480;2023-07-30T07:37:40;4.27;;;3.63;;
1346;SDS011;667;48.796;9.480;2023-07-30T07:40:07;3.30;;;3.10;;
1346;SDS011;667;48.796;9.480;2023-07-30T07:42:34;4.37;;;4.07;;
1346;SDS011;667;48.796;9.480;2023-07-30T07:45:00;3.47;;;3.20;;
1346;SDS011;667;48.796;9.480;2023-07-30T07:47:26;3.60;;;3.30;;
1346;SDS011;667;48.796;9.480;2023-07-30T07:49:51;3.43;;;3.13;;
1346;SDS011;667;48.796;9.480;2023-07-30T07:52:17;2.80;;;2.60;;
1346;SDS011;667;48.796;9.480;2023-07-30T07:54:44;2.60;;;2.40;;
1346;SDS011;667;48.796;9.480;2023-07-30T07:57:10;2.20;;;2.00;;
1346;SDS011;667;48.796;9.480;2023-07-30T07:59:35;3.40;;;2.50;;
1346;SDS011;667;48.796;9.480;2023-07-30T08:02:01;2.50;;;2.30;;
1346;SDS011;667;48.796;9.480;2023-07-30T08:04:27;3.00;;;2.80;;
1346;SDS011;667;48.796;9.480;2023-07-30T08:06:53;4.43;;;2.73;;
1346;SDS011;667;48.796;9.480;2023-07-30T08:09:18;3.07;;;2.40;;
1346;SDS011;667;48.796;9.480;2023-07-30T08:11:44;2.20;;;2.00;;
1346;SDS011;667;48.796;9.480;2023-07-30T08:14:09;2.70;;;2.20;;
1346;SDS011;667;48.796;9.480;2023-07-30T08:16:35;1.60;;;1.50;;
1346;SDS011;667;48.796;9.480;2023-07-30T08:19:01;2.27;;;2.07;;
1346;SDS011;667;48.796;9.480;2023-07-30T08:21:26;1.90;;;1.80;;
1346;SDS011;667;48.796;9.480;2023-07-30T08:23:52;2.10;;;1.90;;
1346;SDS011;667;48.796;9.480;2023-07-30T08:26:17;2.40;;;2.00;;
1346;SDS011;667;48.796;9.480;2023-07-30T08:28:43;2.13;;;2.00;;
1346;SDS011;667;48.796;9.480;2023-07-30T08:31:08;3.27;;;1.83;;
1346;SDS011;667;48.796;9.480;2023-07-30T08:33:34;2.10;;;1.90;;
1346;SDS011;667;48.796;9.480;2023-07-30T08:35:59;2.80;;;2.00;;
1346;SDS011;667;48.796;9.480;2023-07-30T08:38:25;2.20;;;2.00;;
1346;SDS011;667;48.796;9.480;2023-07-30T08:40:51;2.50;;;1.90;;
1346;SDS011;667;48.796;9.480;2023-07-30T08:43:19;3.03;;;2.23;;
1346;SDS011;667;48.796;9.480;2023-07-30T08:45:45;2.03;;;1.87;;
1346;SDS011;667;48.796;9.480;2023-07-30T08:48:11;2.17;;;1.83;;
1346;SDS011;667;48.796;9.480;2023-07-30T08:50:37;2.50;;;2.00;;
1346;SDS011;667;48.796;9.480;2023-07-30T08:53:03;2.67;;;2.10;;
1346;SDS011;667;48.796;9.480;2023-07-30T08:55:28;2.63;;;2.30;;
1346;SDS011;667;48.796;9.480;2023-07-30T08:57:57;1.90;;;1.80;;
1346;SDS011;667;48.796;9.480;2023-07-30T09:00:26;2.30;;;1.90;;
1346;SDS011;667;48.796;9.480;2023-07-30T09:02:58;3.30;;;2.00;;
1346;SDS011;667;48.796;9.480;2023-07-30T09:05:25;2.40;;;1.90;;
1346;SDS011;667;48.796;9.480;2023-07-30T09:07:54;2.03;;;1.93;;
1346;SDS011;667;48.796;9.480;2023-07-30T09:10:20;1.97;;;1.87;;
1346;SDS011;667;48.796;9.480;2023-07-30T09:12:46;2.73;;;2.53;;
1346;SDS011;667;48.796;9.480;2023-07-30T09:15:42;2.20;;;2.00;;
1346;SDS011;667;48.796;9.480;2023-07-30T09:18:07;2.47;;;2.27;;
1346;SDS011;667;48.796;9.480;2023-07-30T09:20:39;2.80;;;2.60;;
1346;SDS011;667;48.796;9.480;2023-07-30T09:23:06;2.70;;;2.50;;
1346;SDS011;667;48.796;9.480;2023-07-30T09:25:34;2.13;;;2.03;;
1346;SDS011;667;48.796;9.480;2023-07-30T09:27:59;2.60;;;2.37;;
1346;SDS011;667;48.796;9.480;2023-07-30T09:30:28;2.60;;;2.40;;
1346;SDS011;667;48.796;9.480;2023-07-30T09:32:55;4.23;;;2.73;;
1346;SDS011;667;48.796;9.480;2023-07-30T09:35:22;2.60;;;2.40;;
1346;SDS011;667;48.796;9.480;2023-07-30T09:37:50;3.07;;;2.50;;
1346;SDS011;667;48.796;9.480;2023-07-30T09:40:30;2.53;;;2.33;;
1346;SDS011;667;48.796;9.480;2023-07-30T09:42:59;2.30;;;2.10;;
1346;SDS011;667;48.796;9.480;2023-07-30T09:45:25;2.30;;;2.20;;
1346;SDS011;667;48.796;9.480;2023-07-30T09:47:51;2.67;;;2.47;;
1346;SDS011;667;48.796;9.480;2023-07-30T09:50:18;2.87;;;2.67;;
1346;SDS011;667;48.796;9.480;2023-07-30T09:52:44;2.67;;;2.47;;
1346;SDS011;667;48.796;9.480;2023-07-30T09:55:10;2.43;;;2.20;;
1346;SDS011;667;48.796;9.480;2023-07-30T09:57:37;2.47;;;1.97;;
1346;SDS011;667;48.796;9.480;2023-07-30T10:00:03;3.47;;;2.57;;
1346;SDS011;667;48.796;9.480;2023-07-30T10:02:30;2.80;;;2.60;;
1346;SDS011;667;48.796;9.480;2023-07-30T10:05:01;2.37;;;2.27;;
1346;SDS011;667;48.796;9.480;2023-07-30T10:07:33;2.30;;;2.10;;
1346;SDS011;667;48.796;9.480;2023-07-30T10:10:00;2.80;;;2.60;;
1346;SDS011;667;48.796;9.480;2023-07-30T10:12:28;2.93;;;2.73;;
1346;SDS011;667;48.796;9.480;2023-07-30T10:14:58;3.27;;;2.97;;
1346;SDS011;667;48.796;9.480;2023-07-30T10:17:25;2.80;;;2.60;;
1346;SDS011;667;48.796;9.480;2023-07-30T10:19:51;3.00;;;2.50;;
1346;SDS011;667;48.796;9.480;2023-07-30T10:22:20;3.03;;;2.53;;
1346;SDS011;667;48.796;9.480;2023-07-30T10:24:58;2.97;;;2.67;;
1346;SDS011;667;48.796;9.480;2023-07-30T10:27:25;3.07;;;2.87;;
1346;SDS011;667;48.796;9.480;2023-07-30T10:30:29;3.40;;;2.60;;
1346;SDS011;667;48.796;9.480;2023-07-30T10:35:36;2.57;;;2.37;;
1346;SDS011;667;48.796;9.480;2023-07-30T10:38:12;3.73;;;2.87;;
1346;SDS011;667;48.796;9.480;2023-07-30T10:40:39;2.70;;;2.50;;
1346;SDS011;667;48.796;9.480;2023-07-30T10:43:17;3.23;;;3.00;;
1346;SDS011;667;48.796;9.480;2023-07-30T10:45:49;3.33;;;2.57;;
1346;SDS011;667;48.796;9.480;2023-07-30T10:48:16;7.80;;;2.90;;
1346;SDS011;667;48.796;9.480;2023-07-30T10:50:42;5.97;;;3.00;;
1346;SDS011;667;48.796;9.480;2023-07-30T10:53:08;3.00;;;2.70;;
1346;SDS011;667;48.796;9.480;2023-07-30T10:55:34;3.50;;;2.50;;
1346;SDS011;667;48.796;9.480;2023-07-30T10:58:00;3.53;;;2.70;;
1346;SDS011;667;48.796;9.480;2023-07-30T11:00:26;2.87;;;2.67;;
1346;SDS011;667;48.796;9.480;2023-07-30T11:02:53;3.20;;;2.83;;
1346;SDS011;667;48.796;9.480;2023-07-30T11:05:19;4.27;;;3.67;;
1346;SDS011;667;48.796;9.480;2023-07-30T11:07:51;2.97;;;2.77;;
1346;SDS011;667;48.796;9.480;2023-07-30T11:10:17;4.07;;;2.77;;
1346;SDS011;667;48.796;9.480;2023-07-30T11:12:42;3.07;;;2.77;;
1346;SDS011;667;48.796;9.480;2023-07-30T11:15:08;4.53;;;2.50;;
1346;SDS011;667;48.796;9.480;2023-07-30T11:17:35;4.20;;;3.13;;
1346;SDS011;667;48.796;9.480;2023-07-30T11:20:00;3.10;;;2.80;;
1346;SDS011;667;48.796;9.480;2023-07-30T11:22:30;4.67;;;2.57;;
1346;SDS011;667;48.796;9.480;2023-07-30T11:24:56;2.60;;;2.40;;
1346;SDS011;667;48.796;9.480;2023-07-30T11:27:22;2.93;;;2.73;;
1346;SDS011;667;48.796;9.480;2023-07-30T11:29:57;2.27;;;2.07;;
1346;SDS011;667;48.796;9.480;2023-07-30T11:32:23;2.50;;;2.30;;
1346;SDS011;667;48.796;9.480;2023-07-30T11:34:51;2.60;;;2.40;;
1346;SDS011;667;48.796;9.480;2023-07-30T11:37:18;3.20;;;2.90;;
1346;SDS011;667;48.796;9.480;2023-07-30T11:39:44;5.00;;;2.77;;
1346;SDS011;667;48.796;9.480;2023-07-30T11:42:09;3.03;;;2.70;;
1346;SDS011;667;48.796;9.480;2023-07-30T11:44:36;4.40;;;2.87;;
1346;SDS011;667;48.796;9.480;2023-07-30T11:47:03;2.93;;;2.60;;
1346;SDS011;667;48.796;9.480;2023-07-30T11:49:29;3.97;;;2.83;;
1346;SDS011;667;48.796;9.480;2023-07-30T11:59:44;6.43;;;2.50;;
1346;SDS011;667;48.796;9.480;2023-07-30T12:02:16;2.83;;;2.53;;
1346;SDS011;667;48.796;9.480;2023-07-30T12:04:43;4.60;;;2.57;;
1346;SDS011;667;48.796;9.480;2023-07-30T12:07:09;4.17;;;2.50;;
1346;SDS011;667;48.796;9.480;2023-07-30T12:09:35;3.13;;;2.77;;
1346;SDS011;667;48.796;9.480;2023-07-30T12:12:03;2.53;;;2.33;;
1346;SDS011;667;48.796;9.480;2023-07-30T12:14:29;3.50;;;3.00;;
1346;SDS011;667;48.796;9.480;2023-07-30T12:17:07;3.37;;;2.70;;
1346;SDS011;667;48.796;9.480;2023-07-30T12:19:33;3.83;;;2.67;;
1346;SDS011;667;48.796;9.480;2023-07-30T12:22:01;4.43;;;2.80;;
1346;SDS011;667;48.796;9.480;2023-07-30T12:24:27;2.17;;;2.03;;
1346;SDS011;667;48.796;9.480;2023-07-30T12:26:52;3.50;;;2.40;;
1346;SDS011;667;48.796;9.480;2023-07-30T12:29:18;2.67;;;2.47;;
1346;SDS011;667;48.796;9.480;2023-07-30T12:31:45;2.70;;;2.50;;
1346;SDS011;667;48.796;9.480;2023-07-30T12:34:12;3.03;;;2.73;;
1346;SDS011;667;48.796;9.480;2023-07-30T12:36:38;3.13;;;2.87;;
1346;SDS011;667;48.796;9.480;2023-07-30T12:41:39;3.80;;;2.60;;
1346;SDS011;667;48.796;9.480;2023-07-30T12:44:04;4.80;;;2.90;;
1346;SDS011;667;48.796;9.480;2023-07-30T12:46:30;3.00;;;2.73;;
1346;SDS011;667;48.796;9.480;2023-07-30T12:48:57;2.97;;;2.67;;
1346;SDS011;667;48.796;9.480;2023-07-30T12:51:29;3.13;;;2.53;;
1346;SDS011;667;48.796;9.480;2023-07-30T12:53:55;3.37;;;2.70;;
1346;SDS011;667;48.796;9.480;2023-07-30T12:56:20;3.30;;;2.30;;
1346;SDS011;667;48.796;9.480;2023-07-30T12:58:46;2.70;;;2.50;;
1346;SDS011;667;48.796;9.480;2023-07-30T13:01:11;2.43;;;2.23;;
1346;SDS011;667;48.796;9.480;2023-07-30T13:03:37;3.30;;;3.00;;
1346;SDS011;667;48.796;9.480;2023-07-30T13:06:04;5.63;;;3.07;;
1346;SDS011;667;48.796;9.480;2023-07-30T13:08:29;2.63;;;2.43;;
1346;SDS011;667;48.796;9.480;2023-07-30T13:10:55;3.67;;;3.10;;
1346;SDS011;667;48.796;9.480;2023-07-30T13:13:20;2.80;;;2.60;;
1346;SDS011;667;48.796;9.480;2023-07-30T13:15:46;2.63;;;2.43;;
1346;SDS011;667;48.796;9.480;2023-07-30T13:18:11;3.90;;;2.70;;
1346;SDS011;667;48.796;9.480;2023-07-30T13:20:37;3.33;;;3.03;;
1346;SDS011;667;48.796;9.480;2023-07-30T13:23:03;3.07;;;2.87;;
1346;SDS011;667;48.796;9.480;2023-07-30T13:25:28;3.20;;;2.80;;
1346;SDS011;667;48.796;9.480;2023-07-30T13:27:54;3.50;;;2.60;;
1346;SDS011;667;48.796;9.480;2023-07-30T13:30:19;4.20;;;2.97;;
1346;SDS011;667;48.796;9.480;2023-07-30T13:32:45;2.20;;;2.10;;
1346;SDS011;667;48.796;9.480;2023-07-30T13:35:11;3.40;;;2.87;;
1346;SDS011;667;48.796;9.480;2023-07-30T13:37:36;2.73;;;2.53;;
1346;SDS011;667;48.796;9.480;2023-07-30T13:40:02;2.60;;;2.20;;
1346;SDS011;667;48.796;9.480;2023-07-30T13:42:28;3.63;;;2.10;;
1346;SDS011;667;48.796;9.480;2023-07-30T13:44:53;3.90;;;3.00;;
1346;SDS011;667;48.796;9.480;2023-07-30T13:47:19;3.77;;;3.20;;
1346;SDS011;667;48.796;9.480;2023-07-30T13:49:44;3.00;;;2.80;;
1346;SDS011;667;48.796;9.480;2023-07-30T13:52:12;2.80;;;2.60;;
1346;SDS011;667;48.796;9.480;2023-07-30T13:54:38;2.47;;;2.23;;
1346;SDS011;667;48.796;9.480;2023-07-30T13:57:04;2.50;;;2.20;;
1346;SDS011;667;48.796;9.480;2023-07-30T13:59:30;2.50;;;2.03;;
1346;SDS011;667;48.796;9.480;2023-07-30T14:01:56;2.97;;;2.60;;
1346;SDS011;667;48.796;9.480;2023-07-30T14:04:21;2.63;;;2.43;;
1346;SDS011;667;48.796;9.480;2023-07-30T14:06:47;3.17;;;2.70;;
1346;SDS011;667;48.796;9.480;2023-07-30T14:09:12;3.47;;;3.17;;
1346;SDS011;667;48.796;9.480;2023-07-30T14:11:38;4.37;;;2.70;;
1346;SDS011;667;48.796;9.480;2023-07-30T14:14:06;2.67;;;2.47;;
1346;SDS011;667;48.796;9.480;2023-07-30T14:16:31;2.40;;;2.20;;
1346;SDS011;667;48.796;9.480;2023-07-30T14:18:57;2.67;;;2.43;;
1346;SDS011;667;48.796;9.480;2023-07-30T14:21:23;3.97;;;2.77;;
1346;SDS011;667;48.796;9.480;2023-07-30T14:23:48;2.47;;;2.27;;
1346;SDS011;667;48.796;9.480;2023-07-30T14:26:14;4.00;;;2.30;;
1346;SDS011;667;48.796;9.480;2023-07-30T14:28:40;4.30;;;3.00;;
1346;SDS011;667;48.796;9.480;2023-07-30T14:31:05;2.43;;;2.23;;
1346;SDS011;667;48.796;9.480;2023-07-30T14:33:31;3.83;;;2.60;;
1346;SDS011;667;48.796;9.480;2023-07-30T14:35:56;3.40;;;2.20;;
1346;SDS011;667;48.796;9.480;2023-07-30T14:38:22;2.50;;;2.30;;
1346;SDS011;667;48.796;9.480;2023-07-30T14:40:48;3.77;;;2.33;;
1346;SDS011;667;48.796;9.480;2023-07-30T14:43:13;4.80;;;2.60;;
1346;SDS011;667;48.796;9.480;2023-07-30T14:45:41;3.47;;;2.43;;
1346;SDS011;667;48.796;9.480;2023-07-30T14:48:07;3.13;;;2.37;;
1346;SDS011;667;48.796;9.480;2023-07-30T14:50:32;2.50;;;2.30;;
1346;SDS011;667;48.796;9.480;2023-07-30T14:52:58;3.00;;;2.20;;
1346;SDS011;667;48.796;9.480;2023-07-30T14:55:23;2.50;;;2.30;;
1346;SDS011;667;48.796;9.480;2023-07-30T14:57:49;3.97;;;2.30;;
1346;SDS011;667;48.796;9.480;2023-07-30T15:00:14;2.83;;;2.50;;
1346;SDS011;667;48.796;9.480;2023-07-30T15:02:41;2.93;;;2.43;;
1346;SDS011;667;48.796;9.480;2023-07-30T15:05:07;2.40;;;2.20;;
1346;SDS011;667;48.796;9.480;2023-07-30T15:07:33;2.43;;;2.23;;
1346;SDS011;667;48.796;9.480;2023-07-30T15:09:59;2.93;;;2.53;;
1346;SDS011;667;48.796;9.480;2023-07-30T15:12:25;2.90;;;2.10;;
1346;SDS011;667;48.796;9.480;2023-07-30T15:14:50;4.90;;;2.43;;
1346;SDS011;667;48.796;9.480;2023-07-30T15:17:16;4.20;;;2.20;;
1346;SDS011;667;48.796;9.480;2023-07-30T15:19:41;3.80;;;2.27;;
1346;SDS011;667;48.796;9.480;2023-07-30T15:22:07;3.23;;;2.30;;
1346;SDS011;667;48.796;9.480;2023-07-30T15:24:32;3.93;;;2.30;;
1346;SDS011;667;48.796;9.480;2023-07-30T15:26:58;3.37;;;2.40;;
1346;SDS011;667;48.796;9.480;2023-07-30T15:29:23;8.90;;;2.17;;
1346;SDS011;667;48.796;9.480;2023-07-30T15:31:49;3.87;;;2.53;;
1346;SDS011;667;48.796;9.480;2023-07-30T15:34:16;2.67;;;2.17;;
1346;SDS011;667;48.796;9.480;2023-07-30T15:36:41;4.07;;;1.90;;